createdAt,value
2023-03-17T00:03:41.724Z,8.90
2023-03-17T00:07:54.644Z,8.87
2023-03-17T00:12:10.811Z,8.86
2023-03-17T00:16:25.529Z,8.81
2023-03-17T00:20:37.402Z,8.72
2023-03-17T00:24:48.962Z,8.65
2023-03-17T00:29:00.447Z,8.44
2023-03-17T00:33:12.499Z,8.50
2023-03-17T00:37:24.734Z,8.52
2023-03-17T00:41:36.347Z,8.49
2023-03-17T00:45:48.336Z,8.48
2023-03-17T00:50:00.080Z,8.47
2023-03-17T00:54:12.911Z,8.51
2023-03-17T00:58:30.713Z,8.39
2023-03-17T01:02:42.311Z,8.41
2023-03-17T01:06:54.446Z,8.45
2023-03-17T01:11:07.367Z,8.45
2023-03-17T01:15:20.372Z,8.43
2023-03-17T01:19:32.630Z,8.42
2023-03-17T01:23:44.284Z,8.43
2023-03-17T01:27:59.881Z,8.47
2023-03-17T01:32:11.758Z,8.46
2023-03-17T01:36:23.517Z,8.44
2023-03-17T01:40:39.064Z,8.45
2023-03-17T01:44:58.229Z,8.45
2023-03-17T01:49:10.020Z,8.40
2023-03-17T01:53:23.271Z,8.42
2023-03-17T01:57:45.067Z,8.39
2023-03-17T02:02:03.356Z,8.43
2023-03-17T02:06:14.994Z,8.34
2023-03-17T02:10:30.037Z,8.40
2023-03-17T02:14:41.908Z,8.34
2023-03-17T02:18:53.553Z,8.33
2023-03-17T02:23:06.437Z,8.26
2023-03-17T02:27:23.098Z,8.23
2023-03-17T02:31:35.605Z,8.15
2023-03-17T02:35:47.895Z,8.15
2023-03-17T02:40:01.794Z,8.10
2023-03-17T02:44:13.415Z,8.17
2023-03-17T02:48:25.160Z,8.16
2023-03-17T02:52:37.368Z,8.22
2023-03-17T02:56:48.993Z,8.22
2023-03-17T03:01:00.821Z,8.20
2023-03-17T03:05:12.739Z,8.14
2023-03-17T03:09:24.449Z,8.15
2023-03-17T03:13:37.254Z,8.14
2023-03-17T03:17:48.883Z,8.15
2023-03-17T03:22:00.846Z,8.17
2023-03-17T03:26:12.488Z,8.18
2023-03-17T03:30:24.107Z,8.26
2023-03-17T03:34:35.654Z,8.28
2023-03-17T03:38:47.501Z,8.32
2023-03-17T03:42:59.245Z,8.34
2023-03-17T03:47:11.451Z,8.42
2023-03-17T03:51:23.206Z,8.38
2023-03-17T03:55:34.763Z,8.33
2023-03-17T03:59:46.415Z,8.34
2023-03-17T04:03:58.104Z,8.31
2023-03-17T04:08:11.118Z,8.31
2023-03-17T04:12:22.841Z,8.31
2023-03-17T04:16:34.555Z,8.31
2023-03-17T04:20:46.208Z,8.29
2023-03-17T04:24:57.791Z,8.25
2023-03-17T04:29:10.727Z,8.19
2023-03-17T04:33:22.432Z,8.13
2023-03-17T04:37:34.713Z,8.04
2023-03-17T04:41:46.491Z,8.01
2023-03-17T04:45:58.176Z,7.93
2023-03-17T04:50:10.566Z,7.97
2023-03-17T04:54:22.217Z,7.96
2023-03-17T04:58:33.834Z,7.92
2023-03-17T05:02:45.682Z,7.97
2023-03-17T05:06:58.270Z,7.92
2023-03-17T05:11:09.796Z,8.00
2023-03-17T05:15:21.465Z,8.05
2023-03-17T05:19:33.238Z,8.01
2023-03-17T05:23:45.224Z,7.98
2023-03-17T05:27:57.102Z,7.96
2023-03-17T05:32:09.033Z,7.89
2023-03-17T05:36:21.272Z,7.92
2023-03-17T05:40:33.265Z,7.79
2023-03-17T05:44:45.289Z,7.84
2023-03-17T05:48:57.272Z,7.80
2023-03-17T05:53:09.668Z,7.78
2023-03-17T05:57:21.971Z,7.76
2023-03-17T06:01:33.591Z,7.80
2023-03-17T06:05:45.857Z,7.84
2023-03-17T06:09:57.477Z,7.92
2023-03-17T06:14:09.123Z,8.01
2023-03-17T06:18:20.984Z,8.05
2023-03-17T06:22:33.010Z,8.12
2023-03-17T06:26:45.108Z,8.18
2023-03-17T06:30:56.821Z,8.38
2023-03-17T06:35:08.961Z,8.39
2023-03-17T06:39:21.102Z,8.55
2023-03-17T06:43:32.672Z,8.59
2023-03-17T06:47:44.308Z,8.54
2023-03-17T06:51:55.963Z,9.01
2023-03-17T06:56:12.518Z,9.55
2023-03-17T07:00:30.440Z,9.87
2023-03-17T07:04:42.335Z,10.00
2023-03-17T07:08:53.978Z,10.16
2023-03-17T07:13:07.792Z,10.37
2023-03-17T07:17:19.752Z,10.40
2023-03-17T07:21:31.501Z,10.60
2023-03-17T07:25:43.763Z,10.65
2023-03-17T07:29:55.434Z,10.71
2023-03-17T07:34:07.675Z,10.77
2023-03-17T07:38:19.922Z,10.91
2023-03-17T07:42:31.605Z,11.05
2023-03-17T07:46:43.287Z,11.23
2023-03-17T07:50:54.916Z,11.42
2023-03-17T07:55:12.949Z,11.61
2023-03-17T07:59:24.708Z,11.89
2023-03-17T08:03:38.639Z,12.30
2023-03-17T08:07:51.583Z,12.91
2023-03-17T08:12:04.290Z,13.40
2023-03-17T08:16:16.100Z,13.90
2023-03-17T08:20:29.330Z,14.76
2023-03-17T08:24:43.034Z,15.68
2023-03-17T08:28:54.883Z,16.54
2023-03-17T08:33:06.849Z,17.52
2023-03-17T08:37:18.564Z,18.05
2023-03-17T08:41:30.363Z,18.78
2023-03-17T08:45:42.068Z,19.37
2023-03-17T08:49:53.842Z,19.95
2023-03-17T08:54:06.954Z,20.47
2023-03-17T08:58:20.129Z,20.64
2023-03-17T09:02:31.866Z,20.59
2023-03-17T09:07:01.361Z,20.54
2023-03-17T09:11:17.175Z,20.41
2023-03-17T09:15:29.536Z,20.13
2023-03-17T09:19:41.640Z,20.30
2023-03-17T09:23:53.239Z,20.62
2023-03-17T09:28:07.203Z,20.99
2023-03-17T09:32:18.811Z,21.24
2023-03-17T09:36:31.758Z,21.29
2023-03-17T09:41:20.295Z,20.76
2023-03-17T09:45:43.375Z,20.19
2023-03-17T09:50:03.060Z,19.78
2023-03-17T09:54:36.365Z,19.91
2023-03-17T09:58:55.008Z,20.29
2023-03-17T10:03:10.625Z,20.87
2023-03-17T10:07:44.606Z,21.41
2023-03-17T10:12:04.096Z,21.87
2023-03-17T10:16:23.189Z,22.18
2023-03-17T10:20:40.732Z,22.35
2023-03-17T10:24:57.365Z,22.80
2023-03-17T10:29:17.487Z,22.99
2023-03-17T10:33:29.225Z,22.82
2023-03-17T10:37:43.914Z,22.46
2023-03-17T10:42:07.772Z,22.12
2023-03-17T10:46:29.977Z,21.70
2023-03-17T10:50:41.590Z,21.54
2023-03-17T10:54:54.505Z,21.65
2023-03-17T10:59:09.191Z,21.88
2023-03-17T11:03:27.472Z,22.18
2023-03-17T11:07:40.931Z,22.48
2023-03-17T11:12:01.762Z,22.44
2023-03-17T11:16:24.409Z,22.66
2023-03-17T11:20:56.788Z,22.91
2023-03-17T11:25:23.453Z,23.09
2023-03-17T11:29:50.795Z,22.82
2023-03-17T11:34:13.965Z,22.31
2023-03-17T11:38:43.343Z,21.59
2023-03-17T11:43:11.098Z,20.94
2023-03-17T11:47:48.315Z,20.78
2023-03-17T11:52:16.453Z,21.13
2023-03-17T11:56:40.862Z,21.88
2023-03-17T12:00:57.121Z,22.32
2023-03-17T12:05:15.488Z,22.29
2023-03-17T12:09:40.945Z,22.36
2023-03-17T12:14:02.291Z,22.43
2023-03-17T12:18:16.671Z,22.60
2023-03-17T12:22:33.733Z,22.65
2023-03-17T12:26:54.227Z,22.80
2023-03-17T12:31:34.288Z,22.83
2023-03-17T12:35:46.269Z,22.77
2023-03-17T12:44:41.865Z,22.46
2023-03-17T12:48:56.253Z,22.29
2023-03-17T12:53:21.728Z,22.09
2023-03-17T12:57:43.777Z,21.74
2023-03-17T13:01:59.882Z,21.53
2023-03-17T13:06:24.824Z,21.48
2023-03-17T13:11:24.764Z,21.44
2023-03-17T13:15:39.922Z,21.42
2023-03-17T13:20:07.251Z,21.26
2023-03-17T13:24:23.290Z,21.10
2023-03-17T13:29:39.991Z,21.14
2023-03-17T14:05:27.358Z,20.92
2023-03-17T14:09:42.342Z,20.96
2023-03-17T14:14:26.102Z,20.91
2023-03-17T14:18:49.704Z,20.81
2023-03-17T14:23:06.752Z,20.78
2023-03-17T14:27:18.854Z,20.74
2023-03-17T14:31:31.625Z,20.70
2023-03-17T14:35:43.635Z,20.66
2023-03-17T14:39:57.883Z,20.63
2023-03-17T14:44:09.857Z,20.51
2023-03-17T14:48:36.842Z,20.55
2023-03-17T14:52:50.451Z,20.40
2023-03-17T14:57:06.998Z,20.50
2023-03-17T15:01:42.877Z,20.40
2023-03-17T15:06:05.659Z,20.31
2023-03-17T15:10:24.531Z,20.14
2023-03-17T15:14:40.015Z,20.18
2023-03-17T15:19:04.057Z,20.21
2023-03-17T15:24:40.087Z,19.87
2023-03-17T15:34:57.408Z,19.57
2023-03-17T15:39:09.435Z,19.36
2023-03-17T15:43:22.376Z,19.20
2023-03-17T15:47:37.100Z,19.04
2023-03-17T15:51:49.056Z,18.86
2023-03-17T15:56:00.953Z,18.78
2023-03-17T16:00:20.909Z,18.73
2023-03-17T16:04:32.751Z,18.68
2023-03-17T16:08:45.362Z,18.49
2023-03-17T16:12:57.790Z,18.32
2023-03-17T16:17:28.970Z,18.39
2023-03-17T16:21:41.430Z,18.38
2023-03-17T16:25:55.450Z,18.24
2023-03-17T16:30:16.644Z,18.26
2023-03-17T16:34:28.482Z,18.07
2023-03-17T16:38:52.157Z,17.88
2023-03-17T16:43:10.422Z,17.85
2023-03-17T16:47:27.761Z,17.69
2023-03-17T16:51:39.548Z,17.74
2023-03-17T16:55:53.384Z,17.64
2023-03-17T17:00:07.340Z,17.45
2023-03-17T17:04:19.124Z,17.34
2023-03-17T17:08:30.796Z,17.25
2023-03-17T17:12:42.695Z,17.20
2023-03-17T17:16:54.627Z,17.03
2023-03-17T17:21:07.286Z,17.02
2023-03-17T17:25:19.106Z,16.94
2023-03-17T17:29:32.399Z,16.94
2023-03-17T17:33:44.400Z,16.78
2023-03-17T17:37:56.221Z,16.68
2023-03-17T17:42:11.036Z,16.70
2023-03-17T17:46:24.084Z,16.75
2023-03-17T17:50:35.942Z,16.65
2023-03-17T17:54:47.837Z,16.56
2023-03-17T17:59:01.845Z,16.53
2023-03-17T18:03:13.703Z,16.56
2023-03-17T18:07:25.777Z,16.47
2023-03-17T18:11:40.216Z,16.33
2023-03-17T18:15:52.311Z,16.33
2023-03-17T18:20:04.721Z,16.29
2023-03-17T18:24:16.543Z,16.34
2023-03-17T18:28:28.613Z,16.18
2023-03-17T18:32:42.934Z,16.24
2023-03-17T18:36:57.473Z,16.09
2023-03-17T18:41:11.213Z,16.05
2023-03-17T18:45:23.256Z,15.90
2023-03-17T18:49:35.233Z,15.90
2023-03-17T18:53:46.974Z,15.83
2023-03-17T18:57:58.847Z,15.74
2023-03-17T19:02:10.675Z,15.56
2023-03-17T19:06:23.630Z,15.73
2023-03-17T19:10:35.735Z,15.59
2023-03-17T19:14:47.871Z,15.59
2023-03-17T19:18:59.667Z,15.58
2023-03-17T19:23:11.464Z,15.44
2023-03-17T19:27:23.259Z,15.28
2023-03-17T19:31:35.248Z,15.36
2023-03-17T19:35:54.343Z,15.27
2023-03-17T19:40:09.579Z,15.40
2023-03-17T19:44:22.405Z,15.35
2023-03-17T19:48:34.187Z,15.49
2023-03-17T19:52:46.386Z,15.52
2023-03-17T19:56:58.155Z,15.47
2023-03-17T20:01:10.085Z,15.54
2023-03-17T20:05:21.895Z,15.56
2023-03-17T20:09:33.797Z,15.50
2023-03-17T20:14:11.647Z,15.57
2023-03-17T20:18:23.499Z,15.53
2023-03-17T20:22:35.298Z,15.49
2023-03-17T20:26:49.574Z,15.29
2023-03-17T20:31:05.893Z,15.31
2023-03-17T20:35:18.785Z,15.35
2023-03-17T20:39:30.855Z,15.23
2023-03-17T20:43:42.947Z,15.32
2023-03-17T20:47:55.342Z,15.26
2023-03-17T20:52:08.704Z,15.18
2023-03-17T20:56:23.629Z,15.11
2023-03-17T21:00:35.707Z,14.97
2023-03-17T21:04:48.954Z,15.23
2023-03-17T21:09:13.401Z,15.10
2023-03-17T21:13:25.362Z,15.09
2023-03-17T21:17:42.338Z,15.06
2023-03-17T21:21:54.118Z,15.05
2023-03-17T21:26:05.995Z,15.07
2023-03-17T21:30:19.943Z,15.02
2023-03-17T21:34:32.348Z,15.02
2023-03-17T21:38:44.113Z,15.00
2023-03-17T21:43:04.634Z,14.96
2023-03-17T21:47:16.949Z,14.71
2023-03-17T21:51:29.731Z,14.82
2023-03-17T21:55:42.467Z,14.87
2023-03-17T21:59:54.498Z,14.83
2023-03-17T22:04:08.208Z,14.91
2023-03-17T22:08:20.133Z,14.88
2023-03-17T22:12:32.171Z,14.82
2023-03-17T22:16:47.541Z,14.74
2023-03-17T22:21:00.125Z,14.71
2023-03-17T22:25:11.882Z,14.62
2023-03-17T22:29:24.429Z,14.60
2023-03-17T22:33:36.218Z,14.60
2023-03-17T22:37:49.128Z,14.43
2023-03-17T22:42:01.728Z,14.50
2023-03-17T22:46:14.504Z,14.41
2023-03-17T22:50:26.279Z,14.38
2023-03-17T22:54:38.066Z,14.35
2023-03-17T22:58:49.937Z,14.27
2023-03-17T23:03:02.077Z,14.29
2023-03-17T23:07:14.720Z,14.20
2023-03-17T23:11:27.064Z,14.23
2023-03-17T23:15:39.005Z,14.15
2023-03-17T23:19:50.843Z,14.04
2023-03-17T23:24:04.154Z,13.87
2023-03-17T23:28:16.068Z,14.03
2023-03-17T23:32:28.011Z,13.85
2023-03-17T23:36:40.303Z,13.87
2023-03-17T23:40:56.772Z,13.86
2023-03-17T23:45:08.780Z,13.92
2023-03-17T23:49:20.911Z,13.71
2023-03-17T23:53:32.975Z,13.49
2023-03-17T23:57:44.976Z,13.68
